createdAt,value
2023-04-03T00:04:49.763Z,97999.00
2023-04-03T00:09:50.514Z,98009.00
2023-04-03T00:14:51.449Z,98019.00
2023-04-03T00:19:55.067Z,98016.00
2023-04-03T00:24:55.931Z,98017.00
2023-04-03T00:29:56.798Z,98021.00
2023-04-03T00:34:57.612Z,98021.00
2023-04-03T00:39:58.617Z,98014.00
2023-04-03T00:45:46.748Z,98015.00
2023-04-03T00:50:48.820Z,98018.00
2023-04-03T00:55:52.569Z,98023.00
2023-04-03T01:00:58.230Z,98015.00
2023-04-03T01:05:59.435Z,98003.00
2023-04-03T01:11:00.804Z,98007.00
2023-04-03T01:16:05.456Z,97996.00
2023-04-03T01:22:49.711Z,97998.00
2023-04-03T01:27:50.778Z,97996.00
2023-04-03T01:32:51.696Z,98001.00
2023-04-03T01:37:52.619Z,98000.00
2023-04-03T01:42:53.448Z,98002.00
2023-04-03T01:47:54.703Z,97987.00
2023-04-03T01:52:58.734Z,97993.00
2023-04-03T01:57:59.586Z,98003.00
2023-04-03T02:03:00.921Z,97993.00
2023-04-03T02:08:01.954Z,97997.00
2023-04-03T02:13:03.377Z,97981.00
2023-04-03T02:18:07.611Z,97992.00
2023-04-03T02:23:08.968Z,97987.00
2023-04-03T02:28:09.779Z,97992.00
2023-04-03T02:33:10.612Z,97991.00
2023-04-03T02:38:13.214Z,97988.00
2023-04-03T02:43:14.210Z,97989.00
2023-04-03T02:48:16.924Z,97989.00
2023-04-03T02:53:18.175Z,97993.00
2023-04-03T02:58:19.062Z,97996.00
2023-04-03T03:03:20.032Z,98003.00
2023-04-03T03:08:20.911Z,97999.00
2023-04-03T03:13:21.673Z,97998.00
2023-04-03T03:18:22.634Z,98000.00
2023-04-03T03:23:25.689Z,98003.00
2023-04-03T03:28:26.587Z,97999.00
2023-04-03T03:33:27.950Z,98001.00
2023-04-03T03:38:28.785Z,97993.00
2023-04-03T03:43:30.278Z,97997.00
2023-04-03T03:48:31.359Z,97992.00
2023-04-03T03:53:32.692Z,97996.00
2023-04-03T03:58:37.334Z,97998.00
2023-04-03T04:03:38.678Z,98000.00
2023-04-03T04:08:40.722Z,97993.00
2023-04-03T04:13:42.412Z,97998.00
2023-04-03T04:18:44.236Z,98005.00
2023-04-03T04:23:45.800Z,98001.00
2023-04-03T04:28:48.016Z,98001.00
2023-04-03T04:33:51.394Z,97998.00
2023-04-03T04:38:53.242Z,97998.00
2023-04-03T04:43:55.239Z,98004.00
2023-04-03T04:48:56.818Z,98004.00
2023-04-03T04:53:58.022Z,98004.00
2023-04-03T04:58:59.457Z,98001.00
2023-04-03T05:04:00.852Z,98000.00
2023-04-03T05:09:02.708Z,98000.00
2023-04-03T05:14:06.597Z,98009.00
2023-04-03T05:19:08.000Z,98011.00
2023-04-03T05:24:09.566Z,98013.00
2023-04-03T05:29:12.617Z,98019.00
2023-04-03T05:34:14.209Z,98021.00
2023-04-03T05:39:15.688Z,98022.00
2023-04-03T05:44:18.141Z,98025.00
2023-04-03T05:49:19.949Z,98032.00
2023-04-03T05:54:25.101Z,98039.00
2023-04-03T05:59:28.226Z,98042.00
2023-04-03T06:04:30.808Z,98044.00
2023-04-03T06:09:31.751Z,98048.00
2023-04-03T06:14:33.539Z,98054.00
2023-04-03T06:19:36.530Z,98057.00
2023-04-03T06:24:38.358Z,98061.00
2023-04-03T06:29:39.318Z,98066.00
2023-04-03T06:34:40.117Z,98071.00
2023-04-03T06:39:40.923Z,98073.00
2023-04-03T06:44:41.677Z,98076.00
2023-04-03T06:49:43.705Z,98091.00
2023-04-03T06:54:45.007Z,98091.00
2023-04-03T06:59:46.562Z,98097.00
2023-04-03T07:04:47.949Z,98105.00
2023-04-03T07:09:49.654Z,98104.00
2023-04-03T07:14:50.468Z,98117.00
2023-04-03T07:19:52.340Z,98118.00
2023-04-03T07:24:53.133Z,98111.00
2023-04-03T07:29:56.648Z,98124.00
2023-04-03T07:34:57.530Z,98131.00
2023-04-03T07:39:59.390Z,98126.00
2023-04-03T07:45:00.341Z,98125.00
2023-04-03T07:50:01.445Z,98140.00
2023-04-03T07:55:02.396Z,98129.00
2023-04-03T08:00:05.582Z,98133.00
2023-04-03T08:05:13.434Z,98138.00
2023-04-03T08:10:15.113Z,98134.00
2023-04-03T08:15:16.485Z,98130.00
2023-04-03T08:20:17.634Z,98134.00
2023-04-03T08:25:18.438Z,98129.00
2023-04-03T08:30:19.234Z,98132.00
2023-04-03T08:35:21.170Z,98125.00
2023-04-03T08:40:22.584Z,98130.00
2023-04-03T08:45:47.117Z,98136.00
2023-04-03T08:50:53.490Z,98145.00
2023-04-03T08:55:56.112Z,98146.00
2023-04-03T09:01:13.458Z,98147.00
2023-04-03T09:06:39.355Z,98145.00
2023-04-03T09:13:25.680Z,98152.00
2023-04-03T09:18:34.895Z,98150.00
2023-04-03T09:23:50.532Z,98138.00
2023-04-03T09:28:52.547Z,98147.00
2023-04-03T09:34:00.043Z,98139.00
2023-04-03T09:39:16.823Z,98149.00
2023-04-03T09:44:23.837Z,98134.00
2023-04-03T09:49:25.750Z,98140.00
2023-04-03T09:54:37.725Z,98141.00
2023-04-03T09:59:44.329Z,98147.00
2023-04-03T10:04:47.209Z,98155.00
2023-04-03T10:09:56.742Z,98145.00
2023-04-03T10:15:00.934Z,98145.00
2023-04-03T10:20:47.248Z,98152.00
2023-04-03T10:27:42.179Z,98142.00
2023-04-03T10:33:01.665Z,98135.00
2023-04-03T10:38:23.026Z,98145.00
2023-04-03T10:43:42.972Z,98140.00
2023-04-03T10:49:03.919Z,98133.00
2023-04-03T10:54:27.109Z,98138.00
2023-04-03T11:00:18.768Z,98138.00
2023-04-03T11:05:50.780Z,98126.00
2023-04-03T11:10:55.740Z,98119.00
2023-04-03T11:15:58.461Z,98135.00
2023-04-03T11:21:07.945Z,98115.00
2023-04-03T11:26:12.088Z,98117.00
2023-04-03T11:31:47.213Z,98111.00
2023-04-03T11:36:53.191Z,98117.00
2023-04-03T11:42:06.882Z,98124.00
2023-04-03T11:47:51.491Z,98120.00
2023-04-03T11:53:37.116Z,98110.00
2023-04-03T11:58:38.152Z,98103.00
2023-04-03T12:04:07.310Z,98112.00
2023-04-03T12:09:31.932Z,98103.00
2023-04-03T12:14:32.741Z,98091.00
2023-04-03T12:19:43.978Z,98095.00
2023-04-03T12:24:48.700Z,98097.00
2023-04-03T12:30:11.101Z,98079.00
2023-04-03T12:35:35.020Z,98080.00
2023-04-03T12:43:50.690Z,98078.00
2023-04-03T12:48:55.259Z,98059.00
2023-04-03T12:54:14.662Z,98073.00
2023-04-03T12:59:26.923Z,98072.00
2023-04-03T13:04:30.721Z,98060.00
2023-04-03T13:09:32.827Z,98069.00
2023-04-03T13:14:33.572Z,98069.00
2023-04-03T13:19:34.645Z,98075.00
2023-04-03T13:24:38.357Z,98068.00
2023-04-03T13:29:40.116Z,98050.00
2023-04-03T13:34:43.714Z,98061.00
2023-04-03T13:39:46.191Z,98057.00
2023-04-03T13:44:47.647Z,98050.00
2023-04-03T13:52:41.304Z,98063.00
2023-04-03T13:57:57.515Z,98044.00
2023-04-03T14:02:58.905Z,98052.00
2023-04-03T14:08:02.294Z,98041.00
2023-04-03T14:13:03.853Z,98029.00
2023-04-03T14:18:06.589Z,98009.00
2023-04-03T14:23:08.808Z,98017.00
2023-04-03T14:28:19.404Z,98016.00
2023-04-03T14:33:22.710Z,98022.00
2023-04-03T14:38:30.916Z,98005.00
2023-04-03T14:43:31.861Z,98001.00
2023-04-03T14:48:32.835Z,98008.00
2023-04-03T14:58:38.203Z,98014.00
2023-04-03T15:03:39.111Z,98012.00
2023-04-03T15:08:42.022Z,97988.00
2023-04-03T15:13:43.081Z,97999.00
2023-04-03T15:18:45.109Z,97992.00
2023-04-03T15:23:45.912Z,97998.00
2023-04-03T15:28:46.772Z,97989.00
2023-04-03T15:33:47.535Z,97993.00
2023-04-03T15:38:48.333Z,98009.00
2023-04-03T15:43:49.192Z,98006.00
2023-04-03T15:48:50.193Z,98013.00
2023-04-03T15:53:50.998Z,98005.00
2023-04-03T15:58:52.147Z,98006.00
2023-04-03T16:03:53.232Z,98006.00
2023-04-03T16:08:58.061Z,98008.00
2023-04-03T16:13:59.660Z,98009.00
2023-04-03T16:19:00.946Z,97997.00
2023-04-03T16:24:03.229Z,98006.00
2023-04-03T16:29:04.282Z,98012.00
2023-04-03T16:34:05.110Z,98009.00
2023-04-03T16:39:05.957Z,98013.00
2023-04-03T16:44:07.768Z,98009.00
2023-04-03T16:49:08.924Z,98007.00
2023-04-03T16:54:11.754Z,97997.00
2023-04-03T16:59:12.682Z,98001.00
2023-04-03T17:04:13.685Z,98004.00
2023-04-03T17:09:15.103Z,98006.00
2023-04-03T17:14:16.091Z,98005.00
2023-04-03T17:19:17.666Z,98007.00
2023-04-03T17:24:18.758Z,98008.00
2023-04-03T17:29:19.639Z,98004.00
2023-04-03T17:34:20.967Z,98012.00
2023-04-03T17:39:21.810Z,98020.00
2023-04-03T17:44:22.661Z,98023.00
2023-04-03T17:49:24.461Z,98016.00
2023-04-03T17:54:25.249Z,98033.00
2023-04-03T17:59:26.104Z,98030.00
2023-04-03T18:04:30.397Z,98032.00
2023-04-03T18:09:33.093Z,98034.00
2023-04-03T18:14:36.626Z,98036.00
2023-04-03T18:19:37.526Z,98028.00
2023-04-03T18:24:38.957Z,98035.00
2023-04-03T18:29:42.928Z,98038.00
2023-04-03T18:34:43.800Z,98038.00
2023-04-03T18:39:44.897Z,98036.00
2023-04-03T18:44:49.745Z,98043.00
2023-04-03T18:49:50.735Z,98049.00
2023-04-03T18:54:51.809Z,98051.00
2023-04-03T18:59:52.585Z,98051.00
2023-04-03T19:04:55.256Z,98060.00
2023-04-03T19:09:56.011Z,98064.00
2023-04-03T19:14:56.865Z,98065.00
2023-04-03T19:19:59.111Z,98071.00
2023-04-03T19:25:00.063Z,98071.00
2023-04-03T19:30:01.520Z,98066.00
2023-04-03T19:35:05.075Z,98066.00
2023-04-03T19:40:07.693Z,98072.00
2023-04-03T19:45:11.578Z,98073.00
2023-04-03T19:50:12.394Z,98082.00
2023-04-03T19:55:14.022Z,98081.00
2023-04-03T20:00:15.520Z,98078.00
2023-04-03T20:05:16.969Z,98080.00
2023-04-03T20:10:17.907Z,98081.00
2023-04-03T20:15:19.068Z,98075.00
2023-04-03T20:20:22.155Z,98079.00
2023-04-03T20:25:39.201Z,98079.00
2023-04-03T20:30:47.279Z,98086.00
2023-04-03T20:35:48.362Z,98090.00
2023-04-03T20:40:50.103Z,98087.00
2023-04-03T20:45:51.132Z,98081.00
2023-04-03T20:50:52.189Z,98085.00
2023-04-03T20:56:00.652Z,98087.00
2023-04-03T21:01:02.137Z,98087.00
2023-04-03T21:06:03.395Z,98075.00
2023-04-03T21:11:41.382Z,98075.00
2023-04-03T21:16:42.606Z,98080.00
2023-04-03T21:21:45.232Z,98083.00
2023-04-03T21:26:46.156Z,98076.00
2023-04-03T21:31:58.059Z,98075.00
2023-04-03T21:37:03.840Z,98073.00
2023-04-03T21:42:06.592Z,98075.00
2023-04-03T21:47:07.449Z,98071.00
2023-04-03T21:52:08.362Z,98074.00
2023-04-03T21:57:10.937Z,98076.00
2023-04-03T22:02:11.772Z,98061.00
2023-04-03T22:07:13.630Z,98068.00
2023-04-03T22:12:14.952Z,98061.00
2023-04-03T22:17:16.234Z,98062.00
2023-04-03T22:22:17.509Z,98058.00
2023-04-03T22:27:18.264Z,98060.00
2023-04-03T22:32:19.249Z,98056.00
2023-04-03T22:37:20.011Z,98054.00
2023-04-03T22:42:21.475Z,98051.00
2023-04-03T22:47:22.335Z,98057.00
2023-04-03T22:52:23.193Z,98058.00
2023-04-03T22:57:24.249Z,98059.00
2023-04-03T23:02:25.057Z,98062.00
2023-04-03T23:07:27.064Z,98069.00
2023-04-03T23:12:27.829Z,98067.00
2023-04-03T23:17:28.736Z,98064.00
2023-04-03T23:22:29.958Z,98058.00
2023-04-03T23:27:31.244Z,98063.00
2023-04-03T23:32:32.097Z,98060.00
2023-04-03T23:37:32.888Z,98061.00
2023-04-03T23:42:33.607Z,98057.00
2023-04-03T23:47:35.770Z,98057.00
2023-04-03T23:52:36.571Z,98047.00
2023-04-03T23:57:37.376Z,98059.00
